KTNU/TNU METAR and TAF weather

Enter ICAO airport designator
Station Type Date Time Source
KTNU METAR 2020/07/13 14:35 UTC NOAA

KTNU 131435Z AUTO 18007KT 10SM CLR 25/21 A2998 RMK A01


Station Type Date Time Source
KTNU Decoded METAR 2020/07/13 14:35 UTC NOAA

Newton Municipal, IA, United States (KTNU) 41-41N 093-01W
Jul 13, 2020 - 10:35 AM EDT / 2020.07.13 1435 UTC
Wind: from the S (180 degrees) at 8 MPH (7 KT):0
Visibility: 10 mile(s):0
Sky conditions: clear
Temperature: 77 F (25 C)
Dew Point: 69 F (21 C)
Relative Humidity: 78%
Pressure (altimeter): 29.98 in. Hg (1015 hPa)
ob: KTNU 131435Z AUTO 18007KT 10SM CLR 25/21 A2998 RMK A01
cycle: 14

Station Type Date Time Source
KTNU TAF UTC NOAA

Error!

Example: see airport list